createdAt,value
2018-11-11T00:00:22.733Z,10.50
2018-11-11T00:01:23.272Z,12.50
2018-11-11T00:02:23.897Z,11.80
2018-11-11T00:03:23.770Z,12.00
2018-11-11T00:04:24.007Z,12.70
2018-11-11T00:05:24.097Z,16.00
2018-11-11T00:06:24.063Z,13.20
2018-11-11T00:08:24.253Z,13.80
2018-11-11T00:09:24.790Z,13.60
2018-11-11T00:10:24.750Z,13.20
2018-11-11T00:11:25.115Z,14.50
2018-11-11T00:12:25.528Z,13.60
2018-11-11T00:13:25.646Z,17.30
2018-11-11T00:14:26.046Z,15.70
2018-11-11T00:15:26.514Z,14.00
2018-11-11T00:16:27.194Z,13.80
2018-11-11T00:17:27.040Z,14.60
2018-11-11T00:18:27.433Z,13.00
2018-11-11T00:19:27.826Z,14.90
2018-11-11T00:20:28.255Z,18.20
2018-11-11T00:21:28.708Z,14.70
2018-11-11T00:22:29.278Z,14.20
2018-11-11T00:23:29.442Z,14.90
2018-11-11T00:24:29.435Z,14.10
2018-11-11T00:25:29.786Z,16.60
2018-11-11T00:26:30.152Z,15.10
2018-11-11T00:27:30.564Z,15.20
2018-11-11T00:28:31.096Z,16.50
2018-11-11T00:29:31.076Z,14.10
2018-11-11T00:30:32.493Z,15.80
2018-11-11T00:31:31.889Z,14.50
2018-11-11T00:32:32.390Z,16.50
2018-11-11T00:33:32.863Z,15.90
2018-11-11T00:34:34.044Z,15.50
2018-11-11T00:35:34.550Z,15.50
2018-11-11T00:36:34.969Z,18.20
2018-11-11T00:37:35.306Z,15.60
2018-11-11T00:38:35.703Z,17.10
2018-11-11T00:39:35.498Z,17.30
2018-11-11T00:40:35.927Z,16.50
2018-11-11T00:41:36.127Z,16.50
2018-11-11T00:42:36.340Z,17.10
2018-11-11T00:43:36.578Z,17.80
2018-11-11T00:44:37.056Z,17.60
2018-11-11T00:45:36.768Z,17.00
2018-11-11T00:46:36.978Z,19.60
2018-11-11T00:47:37.214Z,19.30
2018-11-11T00:48:37.506Z,19.40
2018-11-11T00:49:37.402Z,16.20
2018-11-11T00:50:37.719Z,19.60
2018-11-11T00:51:38.129Z,19.10
2018-11-11T00:52:38.441Z,17.50
2018-11-11T00:53:38.726Z,16.30
2018-11-11T00:54:38.876Z,17.70
2018-11-11T00:55:39.089Z,17.10
2018-11-11T00:56:39.268Z,16.50
2018-11-11T00:57:39.646Z,19.70
2018-11-11T00:58:39.958Z,18.10
2018-11-11T00:59:40.382Z,19.00
2018-11-11T01:00:40.787Z,17.60
2018-11-11T01:01:41.551Z,18.40
2018-11-11T01:02:41.415Z,17.70
2018-11-11T01:03:41.523Z,18.00
2018-11-11T01:04:41.975Z,16.60
2018-11-11T01:05:41.883Z,23.10
2018-11-11T01:06:42.204Z,17.50
2018-11-11T01:07:42.741Z,16.60
2018-11-11T01:08:42.725Z,19.50
2018-11-11T01:09:46.510Z,16.90
2018-11-11T01:10:45.905Z,16.90
2018-11-11T01:11:43.962Z,20.00
2018-11-11T01:12:43.922Z,16.70
2018-11-11T01:13:44.369Z,18.10
2018-11-11T01:14:44.334Z,18.00
2018-11-11T01:15:44.950Z,16.90
2018-11-11T01:16:44.486Z,17.50
2018-11-11T01:17:44.959Z,16.60
2018-11-11T01:18:45.322Z,19.20
2018-11-11T01:19:45.748Z,16.30
2018-11-11T01:20:46.138Z,16.50
2018-11-11T01:21:46.555Z,16.20
2018-11-11T01:22:47.148Z,16.20
2018-11-11T01:23:47.011Z,17.10
2018-11-11T01:24:47.396Z,17.10
2018-11-11T01:25:47.761Z,15.80
2018-11-11T01:26:48.925Z,17.00
2018-11-11T01:27:49.343Z,17.00
2018-11-11T01:28:49.853Z,15.90
2018-11-11T01:29:49.652Z,17.10
2018-11-11T01:30:50.282Z,17.60
2018-11-11T01:31:50.082Z,17.90
2018-11-11T01:32:50.593Z,18.90
2018-11-11T01:33:50.605Z,16.00
2018-11-11T01:34:50.913Z,18.10
2018-11-11T01:35:51.156Z,16.00
2018-11-11T01:36:51.436Z,17.30
2018-11-11T01:37:51.647Z,19.40
2018-11-11T01:38:51.850Z,16.20
2018-11-11T01:39:51.354Z,18.90
2018-11-11T01:40:52.401Z,16.20
2018-11-11T01:41:52.331Z,16.90
2018-11-11T01:42:52.530Z,17.70
2018-11-11T01:43:52.718Z,16.90
2018-11-11T01:44:52.834Z,17.80
2018-11-11T01:45:52.954Z,16.50
2018-11-11T01:46:53.148Z,16.70
2018-11-11T01:47:53.256Z,16.80
2018-11-11T01:48:53.446Z,17.20
2018-11-11T01:49:53.632Z,17.90
2018-11-11T01:50:53.749Z,17.00
2018-11-11T01:51:53.876Z,20.60
2018-11-11T01:52:54.121Z,17.10
2018-11-11T01:53:54.347Z,17.50
2018-11-11T01:54:54.719Z,17.10
2018-11-11T01:55:54.709Z,19.80
2018-11-11T01:56:54.637Z,18.00
2018-11-11T01:57:54.965Z,18.00
2018-11-11T01:58:55.303Z,17.50
2018-11-11T01:59:55.715Z,17.90
2018-11-11T02:00:56.141Z,17.20
2018-11-11T02:01:56.550Z,18.30
2018-11-11T02:02:57.008Z,18.30
2018-11-11T02:03:57.540Z,18.30
2018-11-11T02:04:57.387Z,17.60
2018-11-11T02:05:57.817Z,17.00
2018-11-11T02:06:58.224Z,16.70
2018-11-11T02:07:58.548Z,17.70
2018-11-11T02:08:58.943Z,16.90
2018-11-11T02:09:59.426Z,18.20
2018-11-11T02:10:59.689Z,17.00
2018-11-11T02:12:00.102Z,16.70
2018-11-11T02:13:00.559Z,18.90
2018-11-11T02:14:00.530Z,16.80
2018-11-11T02:16:00.971Z,16.20
2018-11-11T02:17:01.157Z,16.50
2018-11-11T02:18:01.761Z,16.90
2018-11-11T02:19:02.210Z,17.90
2018-11-11T02:20:02.569Z,16.90
2018-11-11T02:21:02.519Z,17.10
2018-11-11T02:22:02.818Z,18.10
2018-11-11T02:23:03.105Z,17.20
2018-11-11T02:24:03.726Z,20.40
2018-11-11T02:25:03.629Z,19.40
2018-11-11T02:26:03.848Z,18.00
2018-11-11T02:27:03.962Z,17.70
2018-11-11T02:28:04.266Z,17.80
2018-11-11T02:29:04.474Z,18.80
2018-11-11T02:30:04.688Z,18.30
2018-11-11T02:31:04.796Z,18.40
2018-11-11T02:32:05.630Z,20.00
2018-11-11T02:33:05.729Z,19.50
2018-11-11T02:34:06.164Z,21.10
2018-11-11T02:35:06.355Z,19.20
2018-11-11T02:36:06.777Z,17.10
2018-11-11T02:37:06.992Z,19.20
2018-11-11T02:38:07.066Z,20.70
2018-11-11T02:39:07.170Z,21.00
2018-11-11T02:40:07.478Z,19.50
2018-11-11T02:41:07.423Z,22.20
2018-11-11T02:42:07.570Z,22.10
2018-11-11T02:43:07.706Z,20.20
2018-11-11T02:44:07.737Z,19.60
2018-11-11T02:45:07.871Z,21.10
2018-11-11T02:46:08.369Z,18.10
2018-11-11T02:47:08.586Z,20.10
2018-11-11T02:48:08.811Z,20.10
2018-11-11T02:49:08.906Z,21.30
2018-11-11T02:50:09.023Z,22.60
2018-11-11T02:51:08.933Z,21.90
2018-11-11T02:52:09.438Z,23.90
2018-11-11T02:53:09.790Z,24.20
2018-11-11T02:54:10.255Z,25.70
2018-11-11T02:55:10.587Z,24.10
2018-11-11T02:56:11.043Z,22.90
2018-11-11T02:57:11.409Z,24.40
2018-11-11T02:58:11.903Z,21.00
2018-11-11T02:59:12.279Z,22.80
2018-11-11T03:00:12.690Z,25.10
2018-11-11T03:01:12.876Z,24.00
2018-11-11T03:02:12.818Z,28.00
2018-11-11T03:03:13.265Z,28.00
2018-11-11T03:04:13.677Z,28.50
2018-11-11T03:05:14.116Z,31.90
2018-11-11T03:06:14.368Z,33.20
2018-11-11T03:07:14.347Z,32.60
2018-11-11T03:08:14.672Z,31.80
2018-11-11T03:09:15.110Z,35.10
2018-11-11T03:10:15.998Z,33.40
2018-11-11T03:11:15.864Z,35.20
2018-11-11T03:12:16.267Z,33.00
2018-11-11T03:13:16.594Z,33.40
2018-11-11T03:14:17.069Z,32.00
2018-11-11T03:15:17.557Z,38.10
2018-11-11T03:16:17.874Z,35.50
2018-11-11T03:17:19.032Z,37.90
2018-11-11T03:18:19.030Z,33.30
2018-11-11T03:19:19.757Z,33.80
2018-11-11T03:20:19.860Z,34.30
2018-11-11T03:21:20.390Z,34.10
2018-11-11T03:22:20.390Z,34.10
2018-11-11T03:23:21.010Z,35.90
2018-11-11T03:24:20.980Z,36.80
2018-11-11T03:25:21.229Z,36.50
2018-11-11T03:26:21.553Z,33.60
2018-11-11T03:27:21.852Z,30.30
2018-11-11T03:28:22.053Z,32.60
2018-11-11T03:29:22.400Z,38.00
2018-11-11T03:30:22.243Z,37.90
2018-11-11T03:31:22.535Z,41.80
2018-11-11T03:32:22.925Z,42.00
2018-11-11T03:33:23.088Z,35.40
2018-11-11T03:34:23.319Z,37.90
2018-11-11T03:35:23.919Z,41.90
2018-11-11T03:36:23.832Z,40.00
2018-11-11T03:37:23.859Z,42.40
2018-11-11T03:38:23.998Z,40.00
2018-11-11T03:39:24.036Z,43.30
2018-11-11T03:40:24.371Z,44.90
2018-11-11T03:41:24.208Z,46.40
2018-11-11T03:42:24.649Z,52.10
2018-11-11T03:43:25.059Z,58.10
2018-11-11T03:44:25.585Z,44.80
2018-11-11T03:45:25.425Z,58.50
2018-11-11T03:46:25.840Z,56.70
2018-11-11T03:47:26.220Z,57.10
2018-11-11T03:48:26.723Z,60.30
2018-11-11T03:49:26.534Z,59.90
2018-11-11T03:50:27.145Z,59.80
2018-11-11T03:51:27.196Z,66.20
2018-11-11T03:52:27.089Z,60.90
2018-11-11T03:53:27.480Z,61.40
2018-11-11T03:54:28.031Z,66.00
2018-11-11T03:55:27.864Z,67.10
2018-11-11T03:56:28.303Z,63.00
2018-11-11T03:57:28.803Z,69.90
2018-11-11T03:58:28.671Z,70.90
2018-11-11T03:59:29.057Z,67.40
2018-11-11T04:00:29.402Z,70.30
2018-11-11T04:01:29.798Z,75.20
2018-11-11T04:02:30.236Z,73.60
2018-11-11T04:03:30.549Z,69.40
2018-11-11T04:04:30.420Z,76.20
2018-11-11T04:05:30.769Z,78.20
2018-11-11T04:06:31.158Z,75.60
2018-11-11T04:07:31.575Z,81.60
2018-11-11T04:08:31.985Z,77.50
2018-11-11T04:09:32.321Z,77.80
2018-11-11T04:10:32.854Z,77.80
2018-11-11T04:11:33.711Z,75.90
2018-11-11T04:12:33.935Z,75.20
2018-11-11T04:13:34.339Z,78.70
2018-11-11T04:14:34.789Z,80.20
2018-11-11T04:15:35.376Z,74.80
2018-11-11T04:16:35.277Z,80.40
2018-11-11T04:17:35.713Z,70.90
2018-11-11T04:18:35.906Z,72.00
2018-11-11T04:19:35.919Z,72.60
2018-11-11T04:20:36.021Z,68.70
2018-11-11T04:21:36.135Z,67.90
2018-11-11T04:22:36.251Z,66.30
2018-11-11T04:23:36.246Z,64.30
2018-11-11T04:24:36.150Z,60.30
2018-11-11T04:25:36.259Z,62.00
2018-11-11T04:26:36.472Z,58.00
2018-11-11T04:27:36.496Z,57.30
2018-11-11T04:28:37.004Z,50.10
2018-11-11T04:29:36.798Z,49.70
2018-11-11T04:30:36.209Z,47.60
2018-11-11T04:31:36.708Z,47.50
2018-11-11T04:32:37.305Z,42.40
2018-11-11T04:33:37.235Z,40.20
2018-11-11T04:34:37.492Z,39.40
2018-11-11T04:35:37.836Z,39.00
2018-11-11T04:36:38.015Z,36.70
2018-11-11T04:37:38.289Z,34.20
2018-11-11T04:38:38.497Z,32.60
2018-11-11T04:39:38.694Z,30.00
2018-11-11T04:40:38.991Z,30.60
2018-11-11T04:41:38.999Z,31.60
2018-11-11T04:42:39.034Z,28.60
2018-11-11T04:43:39.028Z,28.10
2018-11-11T04:44:39.353Z,27.70
2018-11-11T04:45:39.697Z,25.40
2018-11-11T04:46:40.118Z,25.10
2018-11-11T04:47:40.598Z,24.30
2018-11-11T04:48:41.975Z,23.20
2018-11-11T04:49:41.370Z,23.50
2018-11-11T04:50:41.778Z,22.30
2018-11-11T04:51:42.209Z,19.90
2018-11-11T04:52:42.620Z,25.50
2018-11-11T04:53:43.034Z,18.00
2018-11-11T04:54:43.425Z,18.60
2018-11-11T04:55:43.767Z,21.50
2018-11-11T04:56:44.094Z,19.30
2018-11-11T04:57:44.644Z,17.70
2018-11-11T04:58:45.029Z,17.00
2018-11-11T04:59:45.330Z,17.80
2018-11-11T05:00:45.742Z,16.50
2018-11-11T05:01:46.231Z,17.10
2018-11-11T05:02:46.583Z,16.70
2018-11-11T05:03:47.118Z,16.70
2018-11-11T05:04:47.039Z,17.20
2018-11-11T05:05:47.347Z,16.40
2018-11-11T05:06:47.737Z,16.00
2018-11-11T05:07:48.934Z,17.20
2018-11-11T05:08:49.140Z,16.20
2018-11-11T05:09:49.455Z,16.30
2018-11-11T05:10:49.781Z,14.40
2018-11-11T05:11:50.386Z,13.60
2018-11-11T05:12:50.401Z,14.20
2018-11-11T05:13:50.414Z,13.80
2018-11-11T05:14:50.199Z,13.90
2018-11-11T05:15:50.716Z,14.40
2018-11-11T05:16:50.725Z,14.60
2018-11-11T05:17:51.028Z,16.30
2018-11-11T05:18:51.179Z,13.70
2018-11-11T05:19:51.463Z,14.50
2018-11-11T05:20:51.571Z,13.80
2018-11-11T05:21:51.902Z,14.30
2018-11-11T05:22:51.990Z,12.40
2018-11-11T05:23:51.995Z,14.10
2018-11-11T05:24:52.174Z,13.60
2018-11-11T05:25:52.713Z,12.40
2018-11-11T05:26:52.471Z,13.10
2018-11-11T05:27:52.591Z,12.80
2018-11-11T05:28:52.763Z,14.10
2018-11-11T05:29:52.945Z,12.30
2018-11-11T05:30:53.156Z,12.90
2018-11-11T05:31:53.276Z,12.80
2018-11-11T05:32:53.588Z,13.00
2018-11-11T05:33:53.895Z,11.70
2018-11-11T05:34:54.005Z,12.20
2018-11-11T05:35:54.215Z,12.30
2018-11-11T05:36:54.232Z,15.00
2018-11-11T05:37:54.375Z,13.50
2018-11-11T05:38:54.534Z,14.00
2018-11-11T05:39:54.638Z,12.40
2018-11-11T05:40:54.500Z,13.20
2018-11-11T05:41:55.033Z,11.70
2018-11-11T05:42:54.859Z,14.80
2018-11-11T05:43:55.230Z,11.60
2018-11-11T05:44:55.565Z,13.70
2018-11-11T05:45:55.956Z,12.30
2018-11-11T05:46:56.292Z,16.90
2018-11-11T05:47:56.747Z,12.70
2018-11-11T05:48:56.875Z,11.20
2018-11-11T05:49:56.728Z,13.30
2018-11-11T05:50:57.424Z,15.40
2018-11-11T05:51:57.330Z,12.80
2018-11-11T05:52:57.749Z,12.80
2018-11-11T05:53:58.339Z,13.10
2018-11-11T05:54:58.302Z,15.50
2018-11-11T05:55:58.770Z,13.50
2018-11-11T05:56:58.612Z,12.60
2018-11-11T05:57:59.047Z,16.50
2018-11-11T05:58:59.649Z,15.80
2018-11-11T05:59:59.695Z,16.40
2018-11-11T06:00:59.834Z,15.10
2018-11-11T06:01:59.753Z,14.30
2018-11-11T06:03:00.238Z,13.90
2018-11-11T06:04:00.832Z,13.60
2018-11-11T06:05:00.659Z,19.00
2018-11-11T06:06:01.251Z,19.00
2018-11-11T06:07:01.116Z,16.60
2018-11-11T06:08:01.559Z,16.00
2018-11-11T06:09:02.430Z,14.80
2018-11-11T06:10:02.857Z,15.90
2018-11-11T06:11:02.791Z,15.80
2018-11-11T06:12:04.399Z,16.40
2018-11-11T06:13:04.200Z,15.20
2018-11-11T06:14:04.476Z,17.90
2018-11-11T06:15:04.641Z,16.20
2018-11-11T06:16:04.939Z,15.10
2018-11-11T06:17:05.048Z,16.20
2018-11-11T06:18:05.564Z,19.90
2018-11-11T06:19:05.478Z,19.10
2018-11-11T06:20:05.601Z,21.50
2018-11-11T06:21:05.787Z,19.50
2018-11-11T06:22:06.100Z,19.80
2018-11-11T06:23:06.419Z,16.90
2018-11-11T06:24:06.426Z,18.10
2018-11-11T06:25:06.439Z,21.50
2018-11-11T06:26:07.054Z,18.60
2018-11-11T06:27:07.156Z,19.90
2018-11-11T06:28:07.249Z,20.20
2018-11-11T06:29:07.369Z,20.70
2018-11-11T06:30:07.559Z,18.30
2018-11-11T06:31:07.374Z,22.60
2018-11-11T06:32:07.587Z,23.00
2018-11-11T06:33:07.702Z,19.50
2018-11-11T06:34:07.942Z,22.70
2018-11-11T06:35:08.347Z,22.00
2018-11-11T06:36:08.544Z,22.90
2018-11-11T06:37:08.931Z,22.00
2018-11-11T06:38:09.172Z,21.80
2018-11-11T06:39:09.420Z,24.30
2018-11-11T06:40:09.438Z,23.50
2018-11-11T06:41:09.752Z,23.60
2018-11-11T06:42:10.202Z,30.40
2018-11-11T06:43:10.689Z,25.40
2018-11-11T06:44:11.092Z,23.40
2018-11-11T06:45:12.490Z,26.60
2018-11-11T06:46:11.946Z,26.20
2018-11-11T06:47:12.360Z,27.50
2018-11-11T06:48:12.796Z,25.50
2018-11-11T06:49:13.140Z,22.60
2018-11-11T06:50:13.871Z,25.90
2018-11-11T06:51:13.592Z,25.70
2018-11-11T06:52:14.043Z,27.90
2018-11-11T06:53:14.464Z,26.50
2018-11-11T06:54:14.783Z,24.30
2018-11-11T06:55:15.531Z,24.00
2018-11-11T06:56:15.377Z,23.90
2018-11-11T06:57:15.962Z,20.40
2018-11-11T06:58:15.995Z,27.00
2018-11-11T06:59:16.176Z,22.90
2018-11-11T07:00:17.113Z,21.50
2018-11-11T07:01:17.040Z,25.40
2018-11-11T07:02:17.454Z,20.80
2018-11-11T07:03:17.901Z,20.10
2018-11-11T07:04:18.667Z,23.30
2018-11-11T07:05:18.477Z,23.30
2018-11-11T07:06:19.400Z,24.90
2018-11-11T07:07:19.719Z,23.20
2018-11-11T07:08:19.710Z,21.20
2018-11-11T07:09:20.143Z,19.80
2018-11-11T07:10:20.657Z,20.60
2018-11-11T07:11:20.655Z,23.40
2018-11-11T07:12:20.659Z,16.90
2018-11-11T07:13:21.177Z,20.40
2018-11-11T07:14:21.192Z,18.10
2018-11-11T07:15:21.821Z,19.60
2018-11-11T07:16:21.608Z,16.30
2018-11-11T07:17:21.716Z,18.20
2018-11-11T07:18:22.020Z,18.60
2018-11-11T07:19:22.025Z,15.30
2018-11-11T07:20:22.046Z,15.30
2018-11-11T07:21:22.126Z,25.00
2018-11-11T07:22:22.126Z,18.30
2018-11-11T07:23:22.438Z,20.40
2018-11-11T07:24:22.544Z,17.60
2018-11-11T07:25:22.798Z,16.10
2018-11-11T07:26:22.984Z,21.00
2018-11-11T07:27:23.215Z,18.40
2018-11-11T07:28:23.416Z,20.20
2018-11-11T07:29:23.755Z,18.10
2018-11-11T07:30:24.100Z,18.90
2018-11-11T07:31:24.124Z,16.40
2018-11-11T07:32:24.163Z,15.60
2018-11-11T07:33:24.398Z,16.70
2018-11-11T07:34:24.661Z,15.40
2018-11-11T07:35:25.226Z,19.20
2018-11-11T07:36:25.156Z,17.20
2018-11-11T07:37:25.577Z,17.60
2018-11-11T07:38:25.979Z,17.40
2018-11-11T07:39:26.571Z,17.80
2018-11-11T07:40:26.428Z,21.70
2018-11-11T07:41:26.867Z,17.10
2018-11-11T07:42:27.315Z,15.00
2018-11-11T07:43:27.768Z,14.80
2018-11-11T07:44:27.674Z,17.20
2018-11-11T07:45:28.074Z,17.50
2018-11-11T07:46:28.112Z,17.50
2018-11-11T07:47:28.502Z,13.90
2018-11-11T07:48:28.901Z,14.40
2018-11-11T07:49:28.936Z,15.50
2018-11-11T07:50:29.424Z,13.60
2018-11-11T07:51:29.892Z,15.70
2018-11-11T07:52:30.271Z,15.70
2018-11-11T07:53:30.688Z,13.10
2018-11-11T07:54:31.146Z,14.20
2018-11-11T07:55:31.522Z,13.00
2018-11-11T07:56:31.968Z,11.80
2018-11-11T07:57:32.351Z,9.80
2018-11-11T07:58:32.839Z,7.80
2018-11-11T07:59:33.777Z,8.50
2018-11-11T08:00:34.285Z,7.20
2018-11-11T08:01:34.721Z,6.80
2018-11-11T08:02:35.018Z,6.80
2018-11-11T08:03:35.534Z,8.50
2018-11-11T08:04:35.961Z,7.60
2018-11-11T08:05:35.891Z,6.10
2018-11-11T08:06:36.176Z,5.10
2018-11-11T08:07:36.483Z,5.30
2018-11-11T08:08:36.592Z,5.10
2018-11-11T08:09:36.811Z,5.20
2018-11-11T08:11:36.903Z,4.80
2018-11-11T08:12:37.280Z,5.10
2018-11-11T08:13:37.648Z,3.90
2018-11-11T08:14:37.790Z,3.80
2018-11-11T08:15:38.048Z,3.90
2018-11-11T08:16:38.290Z,3.70
2018-11-11T08:17:38.560Z,4.80
2018-11-11T08:18:39.049Z,6.00
2018-11-11T08:19:38.989Z,4.10
2018-11-11T08:20:39.163Z,4.10
2018-11-11T08:21:39.265Z,5.00
2018-11-11T08:22:39.283Z,3.90
2018-11-11T08:23:39.228Z,2.90
2018-11-11T08:25:39.813Z,3.80
2018-11-11T08:26:39.765Z,3.90
2018-11-11T08:27:40.158Z,2.60
2018-11-11T08:28:40.540Z,2.90
2018-11-11T08:29:41.290Z,3.70
2018-11-11T08:30:41.371Z,4.40
2018-11-11T08:31:41.276Z,3.90
2018-11-11T08:32:41.557Z,2.20
2018-11-11T08:33:42.100Z,2.90
2018-11-11T08:34:42.023Z,3.90
2018-11-11T08:35:42.477Z,2.80
2018-11-11T08:36:42.848Z,3.30
2018-11-11T08:37:43.060Z,4.60
2018-11-11T08:38:43.474Z,2.30
2018-11-11T08:39:44.176Z,2.20
2018-11-11T08:40:44.255Z,3.60
2018-11-11T08:41:44.112Z,2.70
2018-11-11T08:42:44.496Z,3.10
2018-11-11T08:43:44.979Z,2.70
2018-11-11T08:44:45.307Z,2.80
2018-11-11T08:45:45.669Z,2.60
2018-11-11T08:46:46.142Z,3.60
2018-11-11T08:47:46.577Z,3.20
2018-11-11T08:48:46.921Z,3.80
2018-11-11T08:49:47.708Z,3.30
2018-11-11T08:50:47.542Z,3.00
2018-11-11T08:51:48.244Z,3.90
2018-11-11T08:52:48.861Z,4.00
2018-11-11T08:53:48.956Z,4.50
2018-11-11T08:54:49.086Z,4.00
2018-11-11T08:55:49.291Z,4.30
2018-11-11T08:56:49.403Z,3.90
2018-11-11T08:57:49.621Z,4.20
2018-11-11T08:58:49.819Z,4.90
2018-11-11T08:59:50.042Z,5.10
2018-11-11T09:00:50.548Z,5.10
2018-11-11T09:01:50.762Z,4.90
2018-11-11T09:02:51.178Z,4.00
2018-11-11T09:03:51.226Z,4.50
2018-11-11T09:04:51.651Z,4.80
2018-11-11T09:05:51.503Z,4.90
2018-11-11T09:06:52.008Z,4.60
2018-11-11T09:07:52.024Z,4.70
2018-11-11T09:08:52.130Z,6.70
2018-11-11T09:09:52.143Z,5.40
2018-11-11T09:10:52.351Z,6.70
2018-11-11T09:11:52.526Z,6.20
2018-11-11T09:12:52.656Z,7.20
2018-11-11T09:13:52.775Z,6.80
2018-11-11T09:14:52.909Z,5.30
2018-11-11T09:15:53.041Z,4.70
2018-11-11T09:16:53.369Z,5.00
2018-11-11T09:17:53.501Z,5.10
2018-11-11T09:18:53.696Z,5.30
2018-11-11T09:19:53.987Z,5.10
2018-11-11T09:20:54.176Z,5.90
2018-11-11T09:21:54.248Z,5.40
2018-11-11T09:22:54.104Z,5.50
2018-11-11T09:23:54.570Z,5.50
2018-11-11T09:24:54.949Z,5.60
2018-11-11T09:25:55.363Z,5.00
2018-11-11T09:26:55.772Z,6.60
2018-11-11T09:27:56.189Z,7.20
2018-11-11T09:28:56.564Z,4.60
2018-11-11T09:29:56.837Z,4.70
2018-11-11T09:30:57.169Z,4.10
2018-11-11T09:31:57.652Z,5.80
2018-11-11T09:32:58.072Z,5.10
2018-11-11T09:33:58.548Z,4.20
2018-11-11T09:34:58.409Z,5.50
2018-11-11T09:35:58.728Z,4.90
2018-11-11T09:37:59.214Z,6.50
2018-11-11T09:38:59.894Z,5.60
2018-11-11T09:39:59.745Z,4.80
2018-11-11T09:41:00.197Z,5.90
2018-11-11T09:42:00.573Z,3.80
2018-11-11T09:43:00.898Z,4.90
2018-11-11T09:44:01.357Z,4.20
2018-11-11T09:45:01.893Z,5.80
2018-11-11T09:46:02.279Z,5.40
2018-11-11T09:47:02.782Z,5.30
2018-11-11T09:48:02.815Z,5.60
2018-11-11T09:49:03.665Z,5.60
2018-11-11T09:50:03.464Z,4.40
2018-11-11T09:51:04.199Z,4.70
2018-11-11T09:52:04.503Z,4.10
2018-11-11T09:53:04.357Z,5.00
2018-11-11T09:54:05.194Z,4.50
2018-11-11T09:55:05.345Z,6.20
2018-11-11T09:56:05.772Z,5.40
2018-11-11T09:57:05.457Z,6.30
2018-11-11T09:58:05.670Z,5.50
2018-11-11T09:59:05.883Z,4.50
2018-11-11T10:00:06.094Z,5.00
2018-11-11T10:01:07.030Z,5.40
2018-11-11T10:02:06.719Z,3.90
2018-11-11T10:03:06.825Z,4.30
2018-11-11T10:04:07.230Z,4.50
2018-11-11T10:05:07.328Z,4.10
2018-11-11T10:06:07.472Z,4.10
2018-11-11T10:07:07.796Z,4.80
2018-11-11T10:08:07.777Z,4.20
2018-11-11T10:09:07.688Z,4.70
2018-11-11T10:10:07.920Z,5.30
2018-11-11T10:11:08.312Z,4.70
2018-11-11T10:12:08.977Z,5.00
2018-11-11T10:13:09.010Z,4.00
2018-11-11T10:14:08.799Z,5.30
2018-11-11T10:15:09.118Z,4.10
2018-11-11T10:16:09.101Z,3.80
2018-11-11T10:17:09.224Z,4.50
2018-11-11T10:18:09.706Z,4.60
2018-11-11T10:19:09.729Z,3.50
2018-11-11T10:20:10.225Z,3.70
2018-11-11T10:21:10.719Z,4.60
2018-11-11T10:22:10.769Z,3.40
2018-11-11T10:23:10.803Z,4.20
2018-11-11T10:24:10.890Z,4.50
2018-11-11T10:25:11.308Z,4.00
2018-11-11T10:26:11.812Z,3.50
2018-11-11T10:27:11.882Z,3.20
2018-11-11T10:28:11.989Z,5.30
2018-11-11T10:29:12.035Z,4.60
2018-11-11T10:30:12.383Z,3.30
2018-11-11T10:31:12.432Z,3.50
2018-11-11T10:32:12.777Z,4.20
2018-11-11T10:33:12.625Z,4.90
2018-11-11T10:34:12.687Z,4.50
2018-11-11T10:35:13.552Z,4.40
2018-11-11T10:36:13.432Z,3.30
2018-11-11T10:37:13.405Z,6.50
2018-11-11T10:38:13.481Z,4.10
2018-11-11T10:39:13.760Z,3.30
2018-11-11T10:40:14.434Z,3.20
2018-11-11T10:41:14.506Z,3.90
2018-11-11T10:42:14.597Z,4.00
2018-11-11T10:43:15.006Z,3.80
2018-11-11T10:44:15.080Z,4.00
2018-11-11T10:45:15.689Z,4.50
2018-11-11T10:46:15.267Z,4.00
2018-11-11T10:47:15.452Z,3.30
2018-11-11T10:48:15.482Z,4.40
2018-11-11T10:49:15.717Z,4.40
2018-11-11T10:50:16.355Z,3.40
2018-11-11T10:51:15.816Z,3.60
2018-11-11T10:52:16.195Z,5.20
2018-11-11T10:53:16.663Z,5.60
2018-11-11T10:54:17.036Z,3.80
2018-11-11T10:55:17.366Z,4.90
2018-11-11T10:56:17.753Z,4.70
2018-11-11T10:57:18.988Z,3.40
2018-11-11T10:58:19.170Z,4.20
2018-11-11T10:59:19.383Z,4.50
2018-11-11T11:00:20.062Z,4.50
2018-11-11T11:01:20.109Z,4.90
2018-11-11T11:02:20.669Z,3.30
2018-11-11T11:03:20.435Z,4.00
2018-11-11T11:04:21.216Z,3.60
2018-11-11T11:05:21.365Z,2.60
2018-11-11T11:06:21.617Z,3.80
2018-11-11T11:07:21.798Z,3.80
2018-11-11T11:08:21.880Z,3.50
2018-11-11T11:09:21.889Z,3.70
2018-11-11T11:10:22.113Z,3.50
2018-11-11T11:11:22.430Z,4.60
2018-11-11T11:12:22.447Z,3.10
2018-11-11T11:13:22.630Z,3.80
2018-11-11T11:14:22.955Z,2.90
2018-11-11T11:15:23.123Z,3.10
2018-11-11T11:16:23.377Z,3.80
2018-11-11T11:17:23.609Z,3.20
2018-11-11T11:18:23.937Z,3.40
2018-11-11T11:19:24.056Z,4.30
2018-11-11T11:20:24.064Z,5.30
2018-11-11T11:21:24.098Z,4.10
2018-11-11T11:22:24.615Z,4.40
2018-11-11T11:23:24.489Z,3.90
2018-11-11T11:24:24.901Z,4.10
2018-11-11T11:25:25.386Z,2.80
2018-11-11T11:27:25.981Z,3.00
2018-11-11T11:28:25.848Z,3.60
2018-11-11T11:29:26.266Z,3.60
2018-11-11T11:30:26.676Z,2.70
2018-11-11T11:31:27.142Z,3.80
2018-11-11T11:32:27.528Z,3.80
2018-11-11T11:33:27.921Z,4.30
2018-11-11T11:34:28.630Z,2.80
2018-11-11T11:35:28.624Z,3.60
2018-11-11T11:36:28.977Z,4.20
2018-11-11T11:37:29.431Z,3.90
2018-11-11T11:38:29.846Z,3.40
2018-11-11T11:39:30.163Z,2.80
2018-11-11T11:40:30.657Z,2.30
2018-11-11T11:41:30.861Z,4.00
2018-11-11T11:42:30.665Z,4.50
2018-11-11T11:43:31.071Z,2.80
2018-11-11T11:44:31.552Z,3.40
2018-11-11T11:45:31.483Z,3.30
2018-11-11T11:46:31.978Z,5.50
2018-11-11T11:47:32.142Z,3.70
2018-11-11T11:48:32.465Z,1.70
2018-11-11T11:49:32.901Z,3.90
2018-11-11T11:50:34.028Z,2.10
2018-11-11T11:51:34.079Z,3.90
2018-11-11T11:52:34.167Z,2.90
2018-11-11T11:53:34.992Z,3.10
2018-11-11T11:54:35.241Z,4.30
2018-11-11T11:55:35.427Z,2.20
2018-11-11T11:56:35.842Z,4.60
2018-11-11T11:57:36.046Z,1.60
2018-11-11T11:58:36.357Z,2.60
2018-11-11T11:59:36.565Z,3.20
2018-11-11T12:00:36.783Z,3.30
2018-11-11T12:01:36.680Z,2.00
2018-11-11T12:02:37.271Z,3.00
2018-11-11T12:03:37.367Z,4.80
2018-11-11T12:04:37.539Z,3.10
2018-11-11T12:05:37.662Z,3.30
2018-11-11T12:06:38.029Z,3.10
2018-11-11T12:07:38.193Z,2.30
2018-11-11T12:08:38.878Z,5.40
2018-11-11T12:09:38.937Z,4.50
2018-11-11T12:10:39.017Z,3.80
2018-11-11T12:11:39.240Z,5.60
2018-11-11T12:12:39.262Z,4.30
2018-11-11T12:13:39.336Z,4.00
2018-11-11T12:14:39.668Z,3.40
2018-11-11T12:15:40.072Z,4.00
2018-11-11T12:16:40.717Z,4.50
2018-11-11T12:17:41.169Z,2.90
2018-11-11T12:18:41.171Z,4.90
2018-11-11T12:19:41.533Z,3.10
2018-11-11T12:20:42.092Z,5.70
2018-11-11T12:21:42.165Z,3.90
2018-11-11T12:22:41.997Z,3.20
2018-11-11T12:23:42.386Z,4.70
2018-11-11T12:24:42.914Z,2.60
2018-11-11T12:25:42.882Z,4.20
2018-11-11T12:26:42.860Z,3.00
2018-11-11T12:27:43.405Z,2.50
2018-11-11T12:28:43.473Z,3.20
2018-11-11T12:29:43.629Z,3.80
2018-11-11T12:30:44.027Z,3.90
2018-11-11T12:31:43.954Z,2.90
2018-11-11T12:32:44.353Z,2.50
2018-11-11T12:33:44.848Z,2.20
2018-11-11T12:34:45.191Z,4.70
2018-11-11T12:35:45.531Z,4.40
2018-11-11T12:36:45.950Z,6.00
2018-11-11T12:37:46.265Z,4.10
2018-11-11T12:38:46.777Z,4.20
2018-11-11T12:39:47.225Z,2.90
2018-11-11T12:40:47.517Z,4.00
2018-11-11T12:41:48.419Z,2.40
2018-11-11T12:42:48.923Z,3.80
2018-11-11T12:43:49.053Z,7.10
2018-11-11T12:44:49.341Z,2.80
2018-11-11T12:45:49.870Z,3.30
2018-11-11T12:46:50.028Z,3.80
2018-11-11T12:47:49.881Z,3.80
2018-11-11T12:48:50.159Z,2.90
2018-11-11T12:49:49.897Z,4.20
2018-11-11T12:51:50.421Z,4.50
2018-11-11T12:52:50.938Z,3.30
2018-11-11T12:53:50.959Z,3.10
2018-11-11T12:54:50.841Z,3.80
2018-11-11T12:55:50.888Z,2.50
2018-11-11T12:56:51.171Z,3.80
2018-11-11T12:57:51.389Z,5.90
2018-11-11T12:58:51.706Z,4.60
2018-11-11T12:59:51.909Z,4.00
2018-11-11T13:00:52.115Z,4.20
2018-11-11T13:01:52.102Z,4.20
2018-11-11T13:02:52.232Z,5.20
2018-11-11T13:03:52.009Z,5.70
2018-11-11T13:04:52.317Z,4.80
2018-11-11T13:05:52.392Z,4.00
2018-11-11T13:06:52.567Z,3.20
2018-11-11T13:07:52.787Z,4.10
2018-11-11T13:08:52.978Z,4.40
2018-11-11T13:09:53.202Z,2.90
2018-11-11T13:10:53.488Z,3.10
2018-11-11T13:11:53.782Z,2.30
2018-11-11T13:12:53.965Z,4.00